sensor_id;sensor_type;location;lat;lon;timestamp;P1;durP1;ratioP1;P2;durP2;ratioP2
53010;SDS011;42803;55.762;38.084;2022-08-24T00:00:44;64.38;;;36.08;;
53010;SDS011;42803;55.762;38.084;2022-08-24T00:03:13;81.10;;;44.38;;
53010;SDS011;42803;55.762;38.084;2022-08-24T00:05:42;111.68;;;51.78;;
53010;SDS011;42803;55.762;38.084;2022-08-24T00:08:13;76.78;;;40.30;;
53010;SDS011;42803;55.762;38.084;2022-08-24T00:10:42;108.22;;;51.80;;
53010;SDS011;42803;55.762;38.084;2022-08-24T00:13:11;89.07;;;45.97;;
53010;SDS011;42803;55.762;38.084;2022-08-24T00:15:41;104.78;;;55.25;;
53010;SDS011;42803;55.762;38.084;2022-08-24T00:18:11;103.07;;;52.33;;
53010;SDS011;42803;55.762;38.084;2022-08-24T00:20:40;126.97;;;63.85;;
53010;SDS011;42803;55.762;38.084;2022-08-24T00:23:12;123.30;;;61.83;;
53010;SDS011;42803;55.762;38.084;2022-08-24T00:25:42;205.75;;;103.93;;
53010;SDS011;42803;55.762;38.084;2022-08-24T00:28:11;230.15;;;109.65;;
53010;SDS011;42803;55.762;38.084;2022-08-24T00:30:42;318.77;;;152.35;;
53010;SDS011;42803;55.762;38.084;2022-08-24T00:33:11;194.07;;;98.35;;
53010;SDS011;42803;55.762;38.084;2022-08-24T00:35:40;165.48;;;86.05;;
53010;SDS011;42803;55.762;38.084;2022-08-24T00:38:09;158.95;;;80.45;;
53010;SDS011;42803;55.762;38.084;2022-08-24T00:40:40;175.02;;;83.85;;
53010;SDS011;42803;55.762;38.084;2022-08-24T00:43:12;210.80;;;105.30;;
53010;SDS011;42803;55.762;38.084;2022-08-24T00:45:41;149.07;;;77.05;;
53010;SDS011;42803;55.762;38.084;2022-08-24T00:48:15;111.78;;;56.67;;
53010;SDS011;42803;55.762;38.084;2022-08-24T00:50:48;128.23;;;62.55;;
53010;SDS011;42803;55.762;38.084;2022-08-24T00:53:22;163.48;;;83.38;;
53010;SDS011;42803;55.762;38.084;2022-08-24T00:55:56;188.23;;;92.47;;
53010;SDS011;42803;55.762;38.084;2022-08-24T00:58:30;238.57;;;118.80;;
53010;SDS011;42803;55.762;38.084;2022-08-24T01:01:03;209.80;;;101.38;;
53010;SDS011;42803;55.762;38.084;2022-08-24T01:03:34;250.60;;;122.72;;
53010;SDS011;42803;55.762;38.084;2022-08-24T01:06:04;141.73;;;69.53;;
53010;SDS011;42803;55.762;38.084;2022-08-24T01:08:33;192.07;;;94.55;;
53010;SDS011;42803;55.762;38.084;2022-08-24T01:11:05;224.85;;;115.72;;
53010;SDS011;42803;55.762;38.084;2022-08-24T01:13:40;168.73;;;81.40;;
53010;SDS011;42803;55.762;38.084;2022-08-24T01:16:12;191.88;;;93.70;;
53010;SDS011;42803;55.762;38.084;2022-08-24T01:19:03;224.02;;;104.78;;
53010;SDS011;42803;55.762;38.084;2022-08-24T01:21:37;241.15;;;121.78;;
53010;SDS011;42803;55.762;38.084;2022-08-24T01:24:14;199.55;;;100.53;;
53010;SDS011;42803;55.762;38.084;2022-08-24T01:26:44;215.30;;;105.85;;
53010;SDS011;42803;55.762;38.084;2022-08-24T01:29:16;306.02;;;150.43;;
53010;SDS011;42803;55.762;38.084;2022-08-24T01:31:50;208.90;;;104.63;;
53010;SDS011;42803;55.762;38.084;2022-08-24T01:34:20;241.80;;;115.25;;
53010;SDS011;42803;55.762;38.084;2022-08-24T01:36:50;138.60;;;67.78;;
53010;SDS011;42803;55.762;38.084;2022-08-24T01:39:25;181.68;;;90.72;;
53010;SDS011;42803;55.762;38.084;2022-08-24T01:41:59;208.02;;;105.65;;
53010;SDS011;42803;55.762;38.084;2022-08-24T01:44:29;377.05;;;195.82;;
53010;SDS011;42803;55.762;38.084;2022-08-24T01:47:02;387.02;;;192.43;;
53010;SDS011;42803;55.762;38.084;2022-08-24T01:49:35;473.23;;;254.80;;
53010;SDS011;42803;55.762;38.084;2022-08-24T01:52:09;517.83;;;282.02;;
53010;SDS011;42803;55.762;38.084;2022-08-24T01:54:41;474.70;;;258.67;;
53010;SDS011;42803;55.762;38.084;2022-08-24T01:57:12;341.55;;;169.05;;
53010;SDS011;42803;55.762;38.084;2022-08-24T01:59:44;319.92;;;157.20;;
53010;SDS011;42803;55.762;38.084;2022-08-24T02:02:14;232.27;;;115.78;;
53010;SDS011;42803;55.762;38.084;2022-08-24T02:04:46;274.25;;;138.98;;
53010;SDS011;42803;55.762;38.084;2022-08-24T02:07:15;231.10;;;118.55;;
53010;SDS011;42803;55.762;38.084;2022-08-24T02:09:46;241.98;;;124.35;;
53010;SDS011;42803;55.762;38.084;2022-08-24T02:12:16;226.25;;;112.25;;
53010;SDS011;42803;55.762;38.084;2022-08-24T02:15:07;383.85;;;195.13;;
53010;SDS011;42803;55.762;38.084;2022-08-24T02:17:37;359.35;;;180.23;;
53010;SDS011;42803;55.762;38.084;2022-08-24T02:20:07;262.50;;;131.60;;
53010;SDS011;42803;55.762;38.084;2022-08-24T02:22:37;133.07;;;66.18;;
53010;SDS011;42803;55.762;38.084;2022-08-24T02:25:08;106.25;;;53.25;;
53010;SDS011;42803;55.762;38.084;2022-08-24T02:27:40;142.45;;;67.97;;
53010;SDS011;42803;55.762;38.084;2022-08-24T02:30:10;145.38;;;70.30;;
53010;SDS011;42803;55.762;38.084;2022-08-24T02:32:41;212.00;;;104.07;;
53010;SDS011;42803;55.762;38.084;2022-08-24T02:35:10;145.27;;;74.45;;
53010;SDS011;42803;55.762;38.084;2022-08-24T02:37:39;133.73;;;65.03;;
53010;SDS011;42803;55.762;38.084;2022-08-24T02:40:14;91.93;;;47.70;;
53010;SDS011;42803;55.762;38.084;2022-08-24T02:42:43;104.55;;;52.08;;
53010;SDS011;42803;55.762;38.084;2022-08-24T02:45:12;103.45;;;51.72;;
53010;SDS011;42803;55.762;38.084;2022-08-24T02:47:43;114.22;;;56.00;;
53010;SDS011;42803;55.762;38.084;2022-08-24T02:50:13;79.53;;;42.38;;
53010;SDS011;42803;55.762;38.084;2022-08-24T02:52:44;89.97;;;47.90;;
53010;SDS011;42803;55.762;38.084;2022-08-24T02:55:15;84.00;;;43.58;;
53010;SDS011;42803;55.762;38.084;2022-08-24T02:57:49;91.28;;;46.20;;
53010;SDS011;42803;55.762;38.084;2022-08-24T03:00:19;107.22;;;53.40;;
53010;SDS011;42803;55.762;38.084;2022-08-24T03:02:49;107.90;;;55.50;;
53010;SDS011;42803;55.762;38.084;2022-08-24T03:05:20;116.43;;;57.78;;
53010;SDS011;42803;55.762;38.084;2022-08-24T03:07:50;133.40;;;63.38;;
53010;SDS011;42803;55.762;38.084;2022-08-24T03:10:20;119.38;;;59.30;;
53010;SDS011;42803;55.762;38.084;2022-08-24T03:12:50;114.97;;;57.72;;
53010;SDS011;42803;55.762;38.084;2022-08-24T03:17:53;102.93;;;51.92;;
53010;SDS011;42803;55.762;38.084;2022-08-24T03:20:23;89.15;;;47.28;;
53010;SDS011;42803;55.762;38.084;2022-08-24T03:22:53;70.05;;;39.42;;
53010;SDS011;42803;55.762;38.084;2022-08-24T03:25:23;75.45;;;37.88;;
53010;SDS011;42803;55.762;38.084;2022-08-24T03:27:54;74.63;;;40.28;;
53010;SDS011;42803;55.762;38.084;2022-08-24T03:30:24;70.60;;;36.03;;
53010;SDS011;42803;55.762;38.084;2022-08-24T03:32:54;79.68;;;39.17;;
53010;SDS011;42803;55.762;38.084;2022-08-24T03:35:25;72.97;;;36.17;;
53010;SDS011;42803;55.762;38.084;2022-08-24T03:37:55;68.60;;;35.08;;
53010;SDS011;42803;55.762;38.084;2022-08-24T03:40:25;72.63;;;37.63;;
53010;SDS011;42803;55.762;38.084;2022-08-24T03:42:56;56.75;;;31.67;;
53010;SDS011;42803;55.762;38.084;2022-08-24T03:45:26;57.22;;;32.58;;
53010;SDS011;42803;55.762;38.084;2022-08-24T03:47:56;58.38;;;32.25;;
53010;SDS011;42803;55.762;38.084;2022-08-24T03:50:27;58.72;;;31.98;;
53010;SDS011;42803;55.762;38.084;2022-08-24T03:52:56;64.20;;;32.75;;
53010;SDS011;42803;55.762;38.084;2022-08-24T03:55:27;63.90;;;32.25;;
53010;SDS011;42803;55.762;38.084;2022-08-24T03:57:57;51.70;;;30.83;;
53010;SDS011;42803;55.762;38.084;2022-08-24T04:00:26;53.40;;;29.30;;
53010;SDS011;42803;55.762;38.084;2022-08-24T04:02:58;55.47;;;30.33;;
53010;SDS011;42803;55.762;38.084;2022-08-24T04:05:30;58.95;;;31.20;;
53010;SDS011;42803;55.762;38.084;2022-08-24T04:08:02;56.58;;;30.42;;
53010;SDS011;42803;55.762;38.084;2022-08-24T04:10:34;50.33;;;28.38;;
53010;SDS011;42803;55.762;38.084;2022-08-24T04:13:04;48.97;;;27.30;;
53010;SDS011;42803;55.762;38.084;2022-08-24T04:15:37;47.85;;;27.55;;
53010;SDS011;42803;55.762;38.084;2022-08-24T04:18:08;48.83;;;26.65;;
53010;SDS011;42803;55.762;38.084;2022-08-24T04:20:38;49.70;;;26.52;;
53010;SDS011;42803;55.762;38.084;2022-08-24T04:23:12;40.25;;;23.38;;
53010;SDS011;42803;55.762;38.084;2022-08-24T04:25:45;46.05;;;24.50;;
53010;SDS011;42803;55.762;38.084;2022-08-24T04:28:16;49.15;;;27.45;;
53010;SDS011;42803;55.762;38.084;2022-08-24T04:30:47;45.72;;;24.67;;
53010;SDS011;42803;55.762;38.084;2022-08-24T04:33:29;42.88;;;24.35;;
53010;SDS011;42803;55.762;38.084;2022-08-24T04:35:59;44.83;;;23.75;;
53010;SDS011;42803;55.762;38.084;2022-08-24T04:38:31;37.58;;;22.60;;
53010;SDS011;42803;55.762;38.084;2022-08-24T04:41:39;43.85;;;22.30;;
53010;SDS011;42803;55.762;38.084;2022-08-24T04:44:11;41.15;;;21.60;;
53010;SDS011;42803;55.762;38.084;2022-08-24T04:46:40;41.92;;;20.17;;
53010;SDS011;42803;55.762;38.084;2022-08-24T04:49:09;38.40;;;19.45;;
53010;SDS011;42803;55.762;38.084;2022-08-24T04:51:38;34.55;;;19.08;;
53010;SDS011;42803;55.762;38.084;2022-08-24T04:54:08;31.85;;;20.48;;
53010;SDS011;42803;55.762;38.084;2022-08-24T04:56:39;30.27;;;16.17;;
53010;SDS011;42803;55.762;38.084;2022-08-24T04:59:08;28.48;;;16.88;;
53010;SDS011;42803;55.762;38.084;2022-08-24T05:01:39;35.00;;;18.33;;
53010;SDS011;42803;55.762;38.084;2022-08-24T05:04:10;37.80;;;18.45;;
53010;SDS011;42803;55.762;38.084;2022-08-24T05:06:40;30.65;;;16.88;;
53010;SDS011;42803;55.762;38.084;2022-08-24T05:09:09;31.48;;;16.35;;
53010;SDS011;42803;55.762;38.084;2022-08-24T05:11:42;31.45;;;16.52;;
53010;SDS011;42803;55.762;38.084;2022-08-24T05:14:21;32.53;;;14.20;;
53010;SDS011;42803;55.762;38.084;2022-08-24T05:16:54;30.02;;;13.98;;
53010;SDS011;42803;55.762;38.084;2022-08-24T05:19:24;24.17;;;11.57;;
53010;SDS011;42803;55.762;38.084;2022-08-24T05:21:53;23.95;;;10.75;;
53010;SDS011;42803;55.762;38.084;2022-08-24T05:24:22;18.17;;;10.13;;
53010;SDS011;42803;55.762;38.084;2022-08-24T05:26:53;14.98;;;8.38;;
53010;SDS011;42803;55.762;38.084;2022-08-24T05:29:22;18.55;;;9.05;;
53010;SDS011;42803;55.762;38.084;2022-08-24T05:31:51;12.90;;;7.93;;
53010;SDS011;42803;55.762;38.084;2022-08-24T05:34:20;16.02;;;8.30;;
53010;SDS011;42803;55.762;38.084;2022-08-24T05:36:51;14.45;;;7.63;;
53010;SDS011;42803;55.762;38.084;2022-08-24T05:39:37;18.63;;;8.23;;
53010;SDS011;42803;55.762;38.084;2022-08-24T05:42:09;16.13;;;8.15;;
53010;SDS011;42803;55.762;38.084;2022-08-24T05:44:45;18.20;;;7.97;;
53010;SDS011;42803;55.762;38.084;2022-08-24T05:47:18;14.57;;;8.50;;
53010;SDS011;42803;55.762;38.084;2022-08-24T05:49:50;16.70;;;7.88;;
53010;SDS011;42803;55.762;38.084;2022-08-24T05:52:20;13.73;;;7.85;;
53010;SDS011;42803;55.762;38.084;2022-08-24T05:54:51;17.73;;;8.32;;
53010;SDS011;42803;55.762;38.084;2022-08-24T05:57:23;14.13;;;8.20;;
53010;SDS011;42803;55.762;38.084;2022-08-24T06:00:19;13.82;;;7.72;;
53010;SDS011;42803;55.762;38.084;2022-08-24T06:02:50;17.20;;;7.50;;
53010;SDS011;42803;55.762;38.084;2022-08-24T06:05:21;13.60;;;7.85;;
53010;SDS011;42803;55.762;38.084;2022-08-24T06:07:50;16.75;;;7.75;;
53010;SDS011;42803;55.762;38.084;2022-08-24T06:10:20;10.63;;;7.07;;
53010;SDS011;42803;55.762;38.084;2022-08-24T06:13:07;12.60;;;6.25;;
53010;SDS011;42803;55.762;38.084;2022-08-24T06:15:37;12.25;;;5.28;;
53010;SDS011;42803;55.762;38.084;2022-08-24T06:18:07;9.48;;;5.78;;
53010;SDS011;42803;55.762;38.084;2022-08-24T06:20:38;12.88;;;5.80;;
53010;SDS011;42803;55.762;38.084;2022-08-24T06:23:12;8.95;;;5.53;;
53010;SDS011;42803;55.762;38.084;2022-08-24T06:25:48;11.15;;;4.97;;
53010;SDS011;42803;55.762;38.084;2022-08-24T06:28:51;9.40;;;4.53;;
53010;SDS011;42803;55.762;38.084;2022-08-24T06:31:21;10.88;;;4.47;;
53010;SDS011;42803;55.762;38.084;2022-08-24T06:33:53;7.60;;;4.60;;
53010;SDS011;42803;55.762;38.084;2022-08-24T06:36:23;7.95;;;4.60;;
53010;SDS011;42803;55.762;38.084;2022-08-24T06:38:52;10.00;;;4.72;;
53010;SDS011;42803;55.762;38.084;2022-08-24T06:41:23;11.63;;;4.40;;
53010;SDS011;42803;55.762;38.084;2022-08-24T06:43:56;9.30;;;4.93;;
53010;SDS011;42803;55.762;38.084;2022-08-24T06:46:42;7.68;;;5.22;;
53010;SDS011;42803;55.762;38.084;2022-08-24T06:49:11;10.00;;;4.35;;
53010;SDS011;42803;55.762;38.084;2022-08-24T06:51:40;7.78;;;4.72;;
53010;SDS011;42803;55.762;38.084;2022-08-24T06:54:16;12.32;;;4.72;;
53010;SDS011;42803;55.762;38.084;2022-08-24T06:56:46;11.13;;;5.57;;
53010;SDS011;42803;55.762;38.084;2022-08-24T06:59:17;11.65;;;5.28;;
53010;SDS011;42803;55.762;38.084;2022-08-24T07:01:47;10.40;;;5.00;;
53010;SDS011;42803;55.762;38.084;2022-08-24T07:04:16;7.53;;;4.88;;
53010;SDS011;42803;55.762;38.084;2022-08-24T07:07:04;9.27;;;4.63;;
53010;SDS011;42803;55.762;38.084;2022-08-24T07:09:33;6.80;;;4.20;;
53010;SDS011;42803;55.762;38.084;2022-08-24T07:12:02;7.78;;;4.18;;
53010;SDS011;42803;55.762;38.084;2022-08-24T07:14:33;8.10;;;3.72;;
53010;SDS011;42803;55.762;38.084;2022-08-24T07:17:03;6.80;;;3.22;;
53010;SDS011;42803;55.762;38.084;2022-08-24T07:19:32;8.90;;;3.50;;
53010;SDS011;42803;55.762;38.084;2022-08-24T07:22:01;7.47;;;3.47;;
53010;SDS011;42803;55.762;38.084;2022-08-24T07:24:31;11.55;;;3.20;;
53010;SDS011;42803;55.762;38.084;2022-08-24T07:27:00;5.18;;;2.88;;
53010;SDS011;42803;55.762;38.084;2022-08-24T07:29:29;12.15;;;3.55;;
53010;SDS011;42803;55.762;38.084;2022-08-24T07:32:20;7.47;;;2.80;;
53010;SDS011;42803;55.762;38.084;2022-08-24T07:34:51;6.80;;;3.03;;
53010;SDS011;42803;55.762;38.084;2022-08-24T07:37:20;7.25;;;3.65;;
53010;SDS011;42803;55.762;38.084;2022-08-24T07:39:49;8.32;;;3.45;;
53010;SDS011;42803;55.762;38.084;2022-08-24T07:42:18;7.38;;;3.00;;
53010;SDS011;42803;55.762;38.084;2022-08-24T07:44:59;8.27;;;3.30;;
53010;SDS011;42803;55.762;38.084;2022-08-24T07:47:30;9.48;;;2.85;;
53010;SDS011;42803;55.762;38.084;2022-08-24T07:50:19;6.75;;;2.47;;
53010;SDS011;42803;55.762;38.084;2022-08-24T07:52:48;7.53;;;3.90;;
53010;SDS011;42803;55.762;38.084;2022-08-24T07:55:17;7.97;;;2.60;;
53010;SDS011;42803;55.762;38.084;2022-08-24T07:57:47;4.53;;;2.50;;
53010;SDS011;42803;55.762;38.084;2022-08-24T08:00:16;7.25;;;2.22;;
53010;SDS011;42803;55.762;38.084;2022-08-24T08:02:54;6.25;;;2.15;;
53010;SDS011;42803;55.762;38.084;2022-08-24T08:05:23;7.55;;;2.20;;
53010;SDS011;42803;55.762;38.084;2022-08-24T08:07:55;5.75;;;2.05;;
53010;SDS011;42803;55.762;38.084;2022-08-24T08:10:27;7.18;;;1.90;;
53010;SDS011;42803;55.762;38.084;2022-08-24T08:12:57;6.53;;;2.10;;
53010;SDS011;42803;55.762;38.084;2022-08-24T08:15:26;6.78;;;2.33;;
53010;SDS011;42803;55.762;38.084;2022-08-24T08:18:03;4.93;;;2.03;;
53010;SDS011;42803;55.762;38.084;2022-08-24T08:20:35;4.28;;;2.15;;
53010;SDS011;42803;55.762;38.084;2022-08-24T08:23:06;2.90;;;1.80;;
53010;SDS011;42803;55.762;38.084;2022-08-24T08:26:13;10.05;;;3.35;;
53010;SDS011;42803;55.762;38.084;2022-08-24T08:29:07;5.53;;;2.17;;
53010;SDS011;42803;55.762;38.084;2022-08-24T08:31:41;5.70;;;1.70;;
53010;SDS011;42803;55.762;38.084;2022-08-24T08:34:12;5.57;;;1.42;;
53010;SDS011;42803;55.762;38.084;2022-08-24T08:36:42;3.30;;;2.05;;
53010;SDS011;42803;55.762;38.084;2022-08-24T08:39:13;4.53;;;1.98;;
53010;SDS011;42803;55.762;38.084;2022-08-24T08:41:51;4.53;;;2.25;;
53010;SDS011;42803;55.762;38.084;2022-08-24T08:44:45;4.30;;;2.47;;
53010;SDS011;42803;55.762;38.084;2022-08-24T08:47:38;6.35;;;2.13;;
53010;SDS011;42803;55.762;38.084;2022-08-24T08:50:38;7.82;;;2.63;;
53010;SDS011;42803;55.762;38.084;2022-08-24T08:53:31;13.75;;;2.42;;
53010;SDS011;42803;55.762;38.084;2022-08-24T08:56:24;4.70;;;2.08;;
53010;SDS011;42803;55.762;38.084;2022-08-24T08:59:05;6.63;;;2.15;;
53010;SDS011;42803;55.762;38.084;2022-08-24T09:01:58;6.13;;;1.92;;
53010;SDS011;42803;55.762;38.084;2022-08-24T09:04:48;8.82;;;2.20;;
53010;SDS011;42803;55.762;38.084;2022-08-24T09:07:34;6.88;;;2.67;;
53010;SDS011;42803;55.762;38.084;2022-08-24T09:10:28;8.02;;;2.40;;
53010;SDS011;42803;55.762;38.084;2022-08-24T09:13:11;4.97;;;2.10;;
53010;SDS011;42803;55.762;38.084;2022-08-24T09:19:02;18.70;;;2.17;;
53010;SDS011;42803;55.762;38.084;2022-08-24T09:22:06;6.13;;;1.92;;
53010;SDS011;42803;55.762;38.084;2022-08-24T09:24:46;7.80;;;2.38;;
53010;SDS011;42803;55.762;38.084;2022-08-24T09:27:40;6.53;;;2.55;;
53010;SDS011;42803;55.762;38.084;2022-08-24T09:30:20;5.22;;;2.30;;
53010;SDS011;42803;55.762;38.084;2022-08-24T09:32:56;4.57;;;1.80;;
53010;SDS011;42803;55.762;38.084;2022-08-24T09:35:31;5.53;;;1.98;;
53010;SDS011;42803;55.762;38.084;2022-08-24T09:38:06;5.78;;;1.83;;
53010;SDS011;42803;55.762;38.084;2022-08-24T09:40:55;5.82;;;2.38;;
53010;SDS011;42803;55.762;38.084;2022-08-24T09:43:50;9.80;;;2.15;;
53010;SDS011;42803;55.762;38.084;2022-08-24T09:56:14;8.65;;;3.28;;
53010;SDS011;42803;55.762;38.084;2022-08-24T09:59:10;6.82;;;3.33;;
53010;SDS011;42803;55.762;38.084;2022-08-24T10:01:54;8.25;;;3.92;;
53010;SDS011;42803;55.762;38.084;2022-08-24T10:04:39;10.80;;;3.10;;
53010;SDS011;42803;55.762;38.084;2022-08-24T10:07:19;4.65;;;2.35;;
53010;SDS011;42803;55.762;38.084;2022-08-24T10:10:07;5.72;;;2.33;;
53010;SDS011;42803;55.762;38.084;2022-08-24T10:12:50;8.65;;;2.28;;
53010;SDS011;42803;55.762;38.084;2022-08-24T10:21:12;7.90;;;2.25;;
53010;SDS011;42803;55.762;38.084;2022-08-24T10:23:52;5.68;;;2.50;;
53010;SDS011;42803;55.762;38.084;2022-08-24T10:26:36;5.07;;;1.73;;
53010;SDS011;42803;55.762;38.084;2022-08-24T10:29:21;3.55;;;2.30;;
53010;SDS011;42803;55.762;38.084;2022-08-24T10:32:10;3.05;;;2.15;;
53010;SDS011;42803;55.762;38.084;2022-08-24T10:34:53;5.15;;;2.10;;
53010;SDS011;42803;55.762;38.084;2022-08-24T10:37:44;6.07;;;1.98;;
53010;SDS011;42803;55.762;38.084;2022-08-24T10:40:43;5.05;;;1.90;;
53010;SDS011;42803;55.762;38.084;2022-08-24T10:46:35;3.25;;;1.70;;
53010;SDS011;42803;55.762;38.084;2022-08-24T10:49:29;4.32;;;1.90;;
53010;SDS011;42803;55.762;38.084;2022-08-24T10:52:30;7.65;;;2.00;;
53010;SDS011;42803;55.762;38.084;2022-08-24T10:55:26;7.25;;;2.20;;
53010;SDS011;42803;55.762;38.084;2022-08-24T10:58:09;7.97;;;1.77;;
53010;SDS011;42803;55.762;38.084;2022-08-24T11:01:11;10.27;;;2.55;;
53010;SDS011;42803;55.762;38.084;2022-08-24T11:03:50;5.78;;;1.70;;
53010;SDS011;42803;55.762;38.084;2022-08-24T11:06:22;4.65;;;1.90;;
53010;SDS011;42803;55.762;38.084;2022-08-24T11:08:55;6.38;;;1.90;;
53010;SDS011;42803;55.762;38.084;2022-08-24T11:11:27;4.88;;;2.00;;
53010;SDS011;42803;55.762;38.084;2022-08-24T11:13:59;4.03;;;2.00;;
53010;SDS011;42803;55.762;38.084;2022-08-24T11:16:37;6.88;;;1.88;;
53010;SDS011;42803;55.762;38.084;2022-08-24T11:19:10;10.20;;;2.33;;
53010;SDS011;42803;55.762;38.084;2022-08-24T11:21:45;4.75;;;1.50;;
53010;SDS011;42803;55.762;38.084;2022-08-24T11:24:25;3.05;;;1.40;;
53010;SDS011;42803;55.762;38.084;2022-08-24T11:26:58;9.20;;;2.92;;
53010;SDS011;42803;55.762;38.084;2022-08-24T11:29:29;6.03;;;1.83;;
53010;SDS011;42803;55.762;38.084;2022-08-24T11:32:30;7.53;;;2.33;;
53010;SDS011;42803;55.762;38.084;2022-08-24T11:35:07;5.32;;;1.88;;
53010;SDS011;42803;55.762;38.084;2022-08-24T11:37:43;4.47;;;1.40;;
53010;SDS011;42803;55.762;38.084;2022-08-24T11:40:14;2.45;;;1.60;;
53010;SDS011;42803;55.762;38.084;2022-08-24T11:42:51;7.25;;;1.50;;
53010;SDS011;42803;55.762;38.084;2022-08-24T11:45:33;4.25;;;1.20;;
53010;SDS011;42803;55.762;38.084;2022-08-24T11:48:21;6.10;;;1.40;;
53010;SDS011;42803;55.762;38.084;2022-08-24T11:51:04;8.50;;;1.80;;
53010;SDS011;42803;55.762;38.084;2022-08-24T11:53:41;5.72;;;1.42;;
53010;SDS011;42803;55.762;38.084;2022-08-24T11:56:20;7.03;;;1.60;;
53010;SDS011;42803;55.762;38.084;2022-08-24T11:58:56;3.22;;;1.98;;
53010;SDS011;42803;55.762;38.084;2022-08-24T12:01:31;1.33;;;1.10;;
53010;SDS011;42803;55.762;38.084;2022-08-24T12:04:17;5.80;;;1.42;;
53010;SDS011;42803;55.762;38.084;2022-08-24T12:07:02;2.97;;;1.40;;
53010;SDS011;42803;55.762;38.084;2022-08-24T12:09:42;3.33;;;1.52;;
53010;SDS011;42803;55.762;38.084;2022-08-24T12:12:25;6.78;;;1.55;;
53010;SDS011;42803;55.762;38.084;2022-08-24T12:15:01;5.45;;;1.67;;
53010;SDS011;42803;55.762;38.084;2022-08-24T12:17:36;5.05;;;1.40;;
53010;SDS011;42803;55.762;38.084;2022-08-24T12:20:13;2.08;;;1.40;;
53010;SDS011;42803;55.762;38.084;2022-08-24T12:22:54;1.90;;;1.33;;
53010;SDS011;42803;55.762;38.084;2022-08-24T12:25:27;2.85;;;1.30;;
53010;SDS011;42803;55.762;38.084;2022-08-24T12:28:16;5.93;;;1.27;;
53010;SDS011;42803;55.762;38.084;2022-08-24T12:30:50;4.47;;;1.42;;
53010;SDS011;42803;55.762;38.084;2022-08-24T12:33:23;2.30;;;1.00;;
53010;SDS011;42803;55.762;38.084;2022-08-24T12:36:06;7.05;;;1.40;;
53010;SDS011;42803;55.762;38.084;2022-08-24T12:38:47;2.88;;;1.48;;
53010;SDS011;42803;55.762;38.084;2022-08-24T12:41:21;5.95;;;1.50;;
53010;SDS011;42803;55.762;38.084;2022-08-24T12:43:56;4.78;;;1.40;;
53010;SDS011;42803;55.762;38.084;2022-08-24T12:46:31;3.15;;;1.35;;
53010;SDS011;42803;55.762;38.084;2022-08-24T12:49:13;6.15;;;1.40;;
53010;SDS011;42803;55.762;38.084;2022-08-24T12:52:01;6.53;;;1.33;;
53010;SDS011;42803;55.762;38.084;2022-08-24T12:54:48;3.35;;;1.10;;
53010;SDS011;42803;55.762;38.084;2022-08-24T12:57:34;3.05;;;1.50;;
53010;SDS011;42803;55.762;38.084;2022-08-24T13:00:21;6.10;;;1.40;;
53010;SDS011;42803;55.762;38.084;2022-08-24T13:02:55;3.90;;;1.05;;
53010;SDS011;42803;55.762;38.084;2022-08-24T13:05:36;8.50;;;1.10;;
53010;SDS011;42803;55.762;38.084;2022-08-24T13:08:09;3.80;;;1.40;;
53010;SDS011;42803;55.762;38.084;2022-08-24T13:10:44;1.80;;;1.27;;
53010;SDS011;42803;55.762;38.084;2022-08-24T13:13:21;3.17;;;1.60;;
53010;SDS011;42803;55.762;38.084;2022-08-24T13:16:07;1.92;;;1.05;;
53010;SDS011;42803;55.762;38.084;2022-08-24T13:18:47;1.85;;;0.95;;
53010;SDS011;42803;55.762;38.084;2022-08-24T13:21:43;4.45;;;1.10;;
53010;SDS011;42803;55.762;38.084;2022-08-24T13:30:31;3.78;;;1.10;;
53010;SDS011;42803;55.762;38.084;2022-08-24T13:33:24;2.65;;;1.10;;
53010;SDS011;42803;55.762;38.084;2022-08-24T13:35:59;3.97;;;1.33;;
53010;SDS011;42803;55.762;38.084;2022-08-24T13:38:46;2.28;;;1.50;;
53010;SDS011;42803;55.762;38.084;2022-08-24T13:47:45;4.65;;;1.20;;
53010;SDS011;42803;55.762;38.084;2022-08-24T13:50:30;7.37;;;1.20;;
53010;SDS011;42803;55.762;38.084;2022-08-24T13:56:25;4.97;;;1.20;;
53010;SDS011;42803;55.762;38.084;2022-08-24T13:59:03;9.55;;;1.25;;
53010;SDS011;42803;55.762;38.084;2022-08-24T14:01:44;4.05;;;1.40;;
53010;SDS011;42803;55.762;38.084;2022-08-24T14:04:42;5.50;;;1.52;;
53010;SDS011;42803;55.762;38.084;2022-08-24T14:07:17;4.32;;;1.10;;
53010;SDS011;42803;55.762;38.084;2022-08-24T14:09:56;4.63;;;1.25;;
53010;SDS011;42803;55.762;38.084;2022-08-24T14:15:25;2.70;;;1.20;;
53010;SDS011;42803;55.762;38.084;2022-08-24T14:18:13;5.85;;;0.90;;
53010;SDS011;42803;55.762;38.084;2022-08-24T14:20:57;6.32;;;1.23;;
53010;SDS011;42803;55.762;38.084;2022-08-24T14:29:43;5.63;;;1.42;;
53010;SDS011;42803;55.762;38.084;2022-08-24T14:35:19;2.70;;;1.15;;
53010;SDS011;42803;55.762;38.084;2022-08-24T14:38:10;3.33;;;1.30;;
53010;SDS011;42803;55.762;38.084;2022-08-24T14:40:56;4.80;;;1.42;;
53010;SDS011;42803;55.762;38.084;2022-08-24T14:43:33;3.70;;;1.52;;
53010;SDS011;42803;55.762;38.084;2022-08-24T14:46:15;7.30;;;1.27;;
53010;SDS011;42803;55.762;38.084;2022-08-24T14:48:51;3.95;;;1.40;;
53010;SDS011;42803;55.762;38.084;2022-08-24T14:51:42;5.07;;;1.63;;
53010;SDS011;42803;55.762;38.084;2022-08-24T14:54:23;3.13;;;1.60;;
53010;SDS011;42803;55.762;38.084;2022-08-24T14:57:02;6.40;;;1.92;;
53010;SDS011;42803;55.762;38.084;2022-08-24T14:59:45;8.35;;;2.20;;
53010;SDS011;42803;55.762;38.084;2022-08-24T15:05:48;11.15;;;1.80;;
53010;SDS011;42803;55.762;38.084;2022-08-24T15:08:52;5.03;;;2.03;;
53010;SDS011;42803;55.762;38.084;2022-08-24T15:11:34;4.28;;;2.20;;
53010;SDS011;42803;55.762;38.084;2022-08-24T15:14:07;4.88;;;2.13;;
53010;SDS011;42803;55.762;38.084;2022-08-24T15:16:49;4.53;;;2.17;;
53010;SDS011;42803;55.762;38.084;2022-08-24T15:19:27;3.72;;;2.42;;
53010;SDS011;42803;55.762;38.084;2022-08-24T15:22:02;9.70;;;2.80;;
53010;SDS011;42803;55.762;38.084;2022-08-24T15:24:38;10.02;;;2.65;;
53010;SDS011;42803;55.762;38.084;2022-08-24T15:27:17;8.02;;;2.50;;
53010;SDS011;42803;55.762;38.084;2022-08-24T15:29:55;4.75;;;1.88;;
53010;SDS011;42803;55.762;38.084;2022-08-24T15:32:46;5.70;;;2.15;;
53010;SDS011;42803;55.762;38.084;2022-08-24T15:35:22;3.88;;;2.33;;
53010;SDS011;42803;55.762;38.084;2022-08-24T15:37:56;10.70;;;2.55;;
53010;SDS011;42803;55.762;38.084;2022-08-24T15:40:45;15.40;;;2.65;;
53010;SDS011;42803;55.762;38.084;2022-08-24T15:43:16;7.80;;;2.00;;
53010;SDS011;42803;55.762;38.084;2022-08-24T15:45:46;7.18;;;1.95;;
53010;SDS011;42803;55.762;38.084;2022-08-24T15:48:18;6.70;;;2.17;;
53010;SDS011;42803;55.762;38.084;2022-08-24T15:50:52;5.40;;;2.40;;
53010;SDS011;42803;55.762;38.084;2022-08-24T15:53:33;5.95;;;2.30;;
53010;SDS011;42803;55.762;38.084;2022-08-24T15:59:06;6.57;;;2.35;;
53010;SDS011;42803;55.762;38.084;2022-08-24T16:01:37;8.40;;;2.50;;
53010;SDS011;42803;55.762;38.084;2022-08-24T16:04:38;4.68;;;2.38;;
53010;SDS011;42803;55.762;38.084;2022-08-24T16:07:13;4.55;;;2.20;;
53010;SDS011;42803;55.762;38.084;2022-08-24T16:09:59;7.47;;;2.40;;
53010;SDS011;42803;55.762;38.084;2022-08-24T16:12:33;13.27;;;2.88;;